Time;durP1;ratioP1;P1;durP2;ratioP2;P2;SDS_P1;SDS_P2;PMS_P1;PMS_P2;Temp;Humidity;BMP_temperature;BMP_pressure;BME280_temperature;BME280_humidity;BME280_pressure;Samples;Min_cycle;Max_cycle;Signal;HPM_P1;HPM_P2
2021/08/31 00:01:56;;;;;;;0.00;0.00;;;21.70;87.00;;;;;;4899545;29;20044;-73
2021/08/31 00:04:22;;;;;;;0.00;0.00;;;21.80;87.00;;;;;;4899621;29;20437;-75
2021/08/31 00:06:49;;;;;;;0.00;0.00;;;21.80;86.80;;;;;;4899591;29;20029;-73
2021/08/31 00:09:15;;;;;;;0.00;0.00;;;21.80;86.80;;;;;;4899718;29;20028;-74
2021/08/31 00:11:44;;;;;;;0.00;0.00;;;21.80;86.60;;;;;;4899782;29;20029;-73
2021/08/31 00:14:10;;;;;;;0.00;0.00;;;21.90;86.40;;;;;;4899790;29;20119;-72
2021/08/31 00:16:36;;;;;;;0.00;0.00;;;21.90;86.20;;;;;;4882519;29;20047;-74
2021/08/31 00:19:02;;;;;;;0.00;0.00;;;21.90;86.20;;;;;;4883115;29;20032;-73
2021/08/31 00:21:27;;;;;;;0.00;0.00;;;21.90;86.10;;;;;;4883437;29;20032;-73
2021/08/31 00:23:53;;;;;;;0.00;0.00;;;21.90;86.00;;;;;;4898223;29;20028;-72
2021/08/31 00:26:19;;;;;;;0.00;0.00;;;21.90;85.90;;;;;;4899294;29;20038;-73
2021/08/31 00:28:44;;;;;;;0.00;0.00;;;21.90;85.90;;;;;;4899132;29;20081;-73
2021/08/31 00:31:10;;;;;;;0.00;0.00;;;21.90;85.80;;;;;;4899233;29;20112;-73
2021/08/31 00:33:36;;;;;;;0.00;0.00;;;21.90;85.80;;;;;;4899076;29;20028;-73
2021/08/31 00:36:04;;;;;;;0.00;0.00;;;22.00;85.70;;;;;;4898006;29;20092;-73
2021/08/31 00:38:31;;;;;;;0.00;0.00;;;22.00;85.80;;;;;;4898792;29;20044;-73
2021/08/31 00:40:57;;;;;;;0.00;0.00;;;22.00;85.60;;;;;;4899397;29;20533;-73
2021/08/31 00:43:23;;;;;;;0.00;0.00;;;22.00;85.80;;;;;;4882257;29;20112;-72
2021/08/31 00:45:49;;;;;;;0.00;0.00;;;22.00;85.60;;;;;;4898908;29;20111;-72
2021/08/31 00:48:24;;;;;;;0.00;0.00;;;22.00;85.60;;;;;;4898656;29;20032;-74
2021/08/31 00:50:52;;;;;;;0.00;0.00;;;22.10;85.40;;;;;;4898830;29;20048;-74
2021/08/31 00:53:17;;;;;;;0.00;0.00;;;22.10;85.20;;;;;;4898783;29;20032;-72
2021/08/31 00:55:45;;;;;;;0.00;0.00;;;22.10;85.00;;;;;;4898505;29;20047;-74
2021/08/31 00:58:11;;;;;;;0.00;0.00;;;22.10;85.00;;;;;;4898446;29;20481;-74
2021/08/31 01:00:36;;;;;;;0.00;0.00;;;22.10;84.80;;;;;;4882299;29;20043;-74
2021/08/31 01:03:03;;;;;;;0.00;0.00;;;22.10;84.80;;;;;;4898897;29;20085;-74
2021/08/31 01:05:31;;;;;;;0.00;0.00;;;22.10;84.80;;;;;;4898553;29;20036;-73
2021/08/31 01:07:57;;;;;;;0.00;0.00;;;22.00;85.30;;;;;;4898565;29;20031;-73
2021/08/31 01:10:24;;;;;;;0.00;0.00;;;22.00;84.70;;;;;;4898822;29;20035;-73
2021/08/31 01:12:51;;;;;;;0.00;0.00;;;22.00;84.70;;;;;;4882516;29;20028;-73
2021/08/31 01:15:17;;;;;;;0.00;0.00;;;22.00;84.80;;;;;;4881863;29;20064;-74
2021/08/31 01:17:42;;;;;;;0.00;0.00;;;22.00;84.90;;;;;;4898349;29;20108;-74
2021/08/31 01:20:09;;;;;;;0.00;0.00;;;21.90;84.90;;;;;;4898489;29;20032;-73
2021/08/31 01:22:34;;;;;;;0.00;0.00;;;21.90;85.10;;;;;;4898781;29;20525;-74
2021/08/31 01:25:02;;;;;;;0.00;0.00;;;21.90;85.30;;;;;;4898964;29;20044;-73
2021/08/31 01:27:28;;;;;;;0.00;0.00;;;21.80;85.50;;;;;;4881510;29;20037;-73
2021/08/31 01:29:58;;;;;;;0.00;0.00;;;21.80;85.50;;;;;;4898478;29;20057;-72
2021/08/31 01:32:24;;;;;;;0.00;0.00;;;21.80;85.60;;;;;;4898676;29;20056;-72
2021/08/31 01:34:50;;;;;;;0.00;0.00;;;21.80;86.10;;;;;;4898696;29;20033;-73
2021/08/31 01:37:16;;;;;;;0.00;0.00;;;21.80;85.70;;;;;;4898349;29;20529;-73
2021/08/31 01:39:42;;;;;;;0.00;0.00;;;21.80;85.80;;;;;;4899067;29;20033;-73
2021/08/31 01:42:08;;;;;;;0.00;0.00;;;21.80;85.70;;;;;;4903004;29;20043;-72
2021/08/31 01:44:33;;;;;;;0.00;0.00;;;21.70;85.60;;;;;;4902308;29;20033;-72
2021/08/31 01:46:59;;;;;;;0.00;0.00;;;21.70;85.80;;;;;;4902327;29;20029;-72
2021/08/31 01:49:25;;;;;;;0.00;0.00;;;21.70;85.80;;;;;;4902351;29;20516;-72
2021/08/31 01:51:51;;;;;;;0.00;0.00;;;21.70;86.00;;;;;;4885682;29;20392;-74
2021/08/31 01:54:17;;;;;;;0.00;0.00;;;21.60;86.10;;;;;;4901971;29;20056;-73
2021/08/31 01:56:42;;;;;;;0.00;0.00;;;21.50;86.20;;;;;;4902153;29;20127;-74
2021/08/31 01:59:08;;;;;;;0.00;0.00;;;21.40;86.20;;;;;;4902194;29;20526;-74
2021/08/31 02:01:35;;;;;;;0.00;0.00;;;21.30;86.40;;;;;;4901905;29;20051;-74
2021/08/31 02:04:01;;;;;;;0.00;0.00;;;21.30;87.00;;;;;;4885142;29;20033;-73
2021/08/31 02:06:27;;;;;;;0.00;0.00;;;21.20;87.30;;;;;;4902506;29;20088;-74
2021/08/31 02:08:52;;;;;;;0.00;0.00;;;21.20;87.50;;;;;;4902223;29;20418;-74
2021/08/31 02:11:18;;;;;;;0.00;0.00;;;21.20;87.70;;;;;;4901720;29;20031;-73
2021/08/31 02:13:44;;;;;;;0.00;0.00;;;21.20;87.70;;;;;;4901851;29;20032;-73
2021/08/31 02:16:10;;;;;;;0.00;0.00;;;21.10;87.70;;;;;;4901554;29;20119;-73
2021/08/31 02:18:39;;;;;;;0.00;0.00;;;21.10;87.70;;;;;;4901647;29;20037;-73
2021/08/31 02:21:06;;;;;;;0.00;0.00;;;21.10;87.80;;;;;;4901764;29;20469;-73
2021/08/31 02:23:32;;;;;;;0.00;0.00;;;21.10;88.00;;;;;;4901953;29;20430;-73
2021/08/31 02:25:57;;;;;;;0.00;0.00;;;21.00;88.00;;;;;;4901434;29;20056;-73
2021/08/31 02:28:23;;;;;;;0.00;0.00;;;21.00;88.10;;;;;;4901636;29;20028;-73
2021/08/31 02:30:49;;;;;;;0.00;0.00;;;21.00;88.00;;;;;;4901994;29;20056;-74
2021/08/31 02:33:14;;;;;;;0.00;0.00;;;20.90;88.10;;;;;;4901344;29;20035;-73
2021/08/31 02:35:40;;;;;;;0.00;0.00;;;20.90;87.90;;;;;;4884492;29;20064;-74
2021/08/31 02:38:06;;;;;;;0.00;0.00;;;20.80;87.70;;;;;;4901534;29;20115;-73
2021/08/31 02:40:32;;;;;;;0.00;0.00;;;20.80;87.60;;;;;;4901202;29;20028;-74
2021/08/31 02:42:58;;;;;;;0.00;0.00;;;20.70;87.90;;;;;;4901415;29;20032;-74
2021/08/31 02:45:23;;;;;;;0.00;0.00;;;20.70;87.90;;;;;;4884388;29;20403;-75
2021/08/31 02:47:49;;;;;;;0.00;0.00;;;20.60;88.10;;;;;;4901061;29;20104;-74
2021/08/31 02:50:15;;;;;;;0.10;0.10;;;20.50;88.00;;;;;;4901194;29;20044;-73
2021/08/31 02:52:41;;;;;;;0.00;0.00;;;20.50;88.20;;;;;;4900963;29;20068;-73
2021/08/31 02:55:07;;;;;;;0.00;0.00;;;20.40;88.30;;;;;;4884113;29;20047;-73
2021/08/31 02:57:33;;;;;;;0.00;0.00;;;20.40;88.40;;;;;;4884321;29;20060;-74
2021/08/31 03:00:00;;;;;;;0.00;0.00;;;20.40;88.30;;;;;;4884832;29;20063;-72
2021/08/31 03:02:26;;;;;;;0.00;0.00;;;20.30;88.10;;;;;;4884267;29;20119;-73
2021/08/31 03:04:52;;;;;;;0.00;0.00;;;20.20;88.50;;;;;;4901213;29;20115;-74
2021/08/31 03:07:18;;;;;;;0.00;0.00;;;20.20;88.70;;;;;;4900756;29;20442;-74
2021/08/31 03:09:44;;;;;;;0.00;0.00;;;20.20;88.70;;;;;;4900852;29;20032;-73
2021/08/31 03:12:10;;;;;;;0.00;0.00;;;20.10;88.70;;;;;;4884047;29;20465;-73
2021/08/31 03:14:36;;;;;;;0.00;0.00;;;20.00;88.80;;;;;;4883939;29;20036;-73
2021/08/31 03:17:02;;;;;;;0.00;0.00;;;20.00;89.10;;;;;;4900510;29;20036;-73
2021/08/31 03:19:28;;;;;;;0.03;0.00;;;20.00;89.20;;;;;;4900701;29;20059;-73
2021/08/31 03:21:59;;;;;;;0.00;0.00;;;19.90;89.10;;;;;;4900429;29;20060;-73
2021/08/31 03:24:26;;;;;;;0.00;0.00;;;19.90;89.20;;;;;;4900448;29;20039;-74
2021/08/31 03:26:52;;;;;;;0.00;0.00;;;19.90;89.20;;;;;;4900678;29;20036;-72
2021/08/31 03:29:17;;;;;;;0.00;0.00;;;19.80;89.50;;;;;;4900853;29;20033;-73
2021/08/31 03:31:43;;;;;;;0.00;0.00;;;19.80;89.90;;;;;;4900239;29;20040;-75
2021/08/31 03:34:09;;;;;;;0.00;0.00;;;19.80;90.00;;;;;;4900069;29;20056;-72
2021/08/31 03:36:35;;;;;;;0.00;0.00;;;19.70;90.00;;;;;;4900641;29;20024;-72
2021/08/31 03:39:01;;;;;;;0.00;0.00;;;19.70;90.10;;;;;;4900337;29;20037;-73
2021/08/31 03:41:27;;;;;;;0.00;0.00;;;19.60;90.10;;;;;;4900362;29;20029;-73
2021/08/31 03:43:52;;;;;;;0.00;0.00;;;19.60;90.30;;;;;;4883498;29;20032;-73
2021/08/31 03:46:18;;;;;;;0.00;0.00;;;19.60;90.30;;;;;;4900028;29;20465;-73
2021/08/31 03:48:44;;;;;;;0.00;0.00;;;19.60;90.20;;;;;;4900242;29;20031;-75
2021/08/31 03:51:09;;;;;;;0.00;0.00;;;19.60;90.20;;;;;;4900608;29;20068;-74
2021/08/31 03:53:35;;;;;;;0.00;0.00;;;19.50;90.20;;;;;;4900139;29;20032;-75
2021/08/31 03:56:01;;;;;;;0.10;0.00;;;19.50;90.30;;;;;;4900424;29;20111;-74
2021/08/31 03:58:27;;;;;;;0.00;0.00;;;19.50;90.30;;;;;;4900079;29;20032;-74
2021/08/31 04:00:52;;;;;;;0.00;0.00;;;19.40;90.30;;;;;;4899709;29;20031;-74
2021/08/31 04:03:18;;;;;;;0.00;0.00;;;19.40;90.50;;;;;;4899432;29;20056;-74
2021/08/31 04:05:44;;;;;;;0.08;0.08;;;19.40;90.60;;;;;;4899664;29;20040;-73
2021/08/31 04:08:10;;;;;;;0.00;0.00;;;19.30;90.70;;;;;;4898650;29;20035;-74
2021/08/31 04:10:36;;;;;;;0.00;0.00;;;19.30;90.80;;;;;;4882996;29;20064;-74
2021/08/31 04:13:02;;;;;;;0.00;0.00;;;19.40;90.80;;;;;;4899738;29;20521;-73
2021/08/31 04:15:28;;;;;;;0.00;0.00;;;19.40;90.80;;;;;;4899639;29;20028;-74
2021/08/31 04:17:53;;;;;;;0.00;0.00;;;19.40;90.70;;;;;;4899642;29;20091;-74
2021/08/31 04:20:19;;;;;;;0.00;0.00;;;19.40;90.70;;;;;;4898279;29;20095;-74
2021/08/31 04:22:45;;;;;;;0.00;0.00;;;19.50;90.60;;;;;;4900147;29;20033;-73
2021/08/31 04:25:11;;;;;;;0.00;0.00;;;19.50;90.50;;;;;;4899212;29;20040;-74
2021/08/31 04:27:37;;;;;;;0.00;0.00;;;19.60;90.70;;;;;;4899795;29;20032;-74
2021/08/31 04:30:04;;;;;;;0.00;0.00;;;19.60;90.80;;;;;;4899692;29;20136;-73
2021/08/31 04:32:29;;;;;;;0.00;0.00;;;19.70;90.50;;;;;;4899746;29;20024;-75
2021/08/31 04:34:55;;;;;;;0.00;0.00;;;19.80;90.20;;;;;;4898904;29;20173;-73
2021/08/31 04:37:22;;;;;;;0.00;0.00;;;19.90;90.10;;;;;;4899122;29;20044;-75
2021/08/31 04:39:48;;;;;;;0.00;0.00;;;19.90;89.90;;;;;;4899192;29;20039;-74
2021/08/31 04:42:13;;;;;;;0.00;0.00;;;19.90;89.60;;;;;;4898992;29;20104;-74
2021/08/31 04:44:39;;;;;;;0.00;0.00;;;19.90;89.30;;;;;;4882337;29;20024;-74
2021/08/31 04:47:05;;;;;;;0.00;0.00;;;19.90;89.00;;;;;;4882354;29;20029;-73
2021/08/31 04:49:30;;;;;;;0.00;0.00;;;19.90;88.90;;;;;;4898772;29;20108;-75
2021/08/31 04:51:56;;;;;;;0.00;0.00;;;19.90;89.30;;;;;;4899317;29;20025;-74
2021/08/31 04:54:22;;;;;;;0.00;0.00;;;19.90;88.70;;;;;;4898794;29;20035;-74
2021/08/31 04:56:48;;;;;;;0.00;0.00;;;19.90;88.50;;;;;;4897630;29;20047;-75
2021/08/31 04:59:13;;;;;;;0.00;0.00;;;20.00;88.30;;;;;;4898920;29;20034;-74
2021/08/31 05:01:39;;;;;;;0.00;0.00;;;20.00;88.10;;;;;;4882137;29;20055;-73
2021/08/31 05:04:05;;;;;;;0.00;0.00;;;20.00;88.00;;;;;;4898757;29;20024;-73
2021/08/31 05:06:31;;;;;;;0.00;0.00;;;20.00;87.60;;;;;;4898809;29;20032;-76
2021/08/31 05:08:57;;;;;;;0.00;0.00;;;19.90;87.70;;;;;;4898842;29;20189;-74
2021/08/31 05:11:22;;;;;;;0.00;0.00;;;19.90;87.90;;;;;;4898627;29;20032;-73
2021/08/31 05:13:48;;;;;;;0.00;0.00;;;19.90;88.20;;;;;;4898454;29;20075;-74
2021/08/31 05:16:16;;;;;;;0.00;0.00;;;20.00;87.70;;;;;;4897889;29;20039;-73
2021/08/31 05:18:43;;;;;;;0.00;0.00;;;20.10;87.50;;;;;;4899000;29;20039;-73
2021/08/31 05:21:09;;;;;;;0.00;0.00;;;20.00;87.30;;;;;;4898715;29;20029;-73
2021/08/31 05:23:35;;;;;;;0.00;0.00;;;20.00;87.50;;;;;;4898528;29;20028;-74
2021/08/31 05:26:01;;;;;;;0.00;0.00;;;20.10;87.40;;;;;;4881883;29;20392;-74
2021/08/31 05:28:27;;;;;;;0.00;0.00;;;20.10;87.10;;;;;;4898546;29;20040;-73
2021/08/31 05:30:52;;;;;;;0.00;0.00;;;20.20;86.80;;;;;;4898011;29;20052;-74
2021/08/31 05:33:18;;;;;;;0.00;0.00;;;20.20;86.40;;;;;;4881692;29;20040;-74
2021/08/31 05:35:44;;;;;;;0.00;0.00;;;20.30;86.10;;;;;;4898666;29;20032;-74
2021/08/31 05:38:10;;;;;;;0.00;0.00;;;20.30;85.80;;;;;;4898348;29;20040;-74
2021/08/31 05:40:36;;;;;;;0.00;0.00;;;20.30;85.50;;;;;;4897993;29;20067;-74
2021/08/31 05:43:02;;;;;;;0.00;0.00;;;20.30;85.30;;;;;;4898365;29;20036;-74
2021/08/31 05:45:32;;;;;;;0.00;0.00;;;20.30;85.40;;;;;;4881720;29;20124;-74
2021/08/31 05:47:58;;;;;;;0.00;0.00;;;20.30;85.30;;;;;;4898006;29;20108;-74
2021/08/31 05:50:25;;;;;;;0.00;0.00;;;20.30;85.20;;;;;;4898340;29;20064;-74
2021/08/31 05:52:51;;;;;;;0.00;0.00;;;20.30;85.30;;;;;;4898214;29;20028;-77
2021/08/31 05:55:17;;;;;;;0.00;0.00;;;20.50;85.20;;;;;;4898139;29;20481;-73
2021/08/31 05:57:43;;;;;;;0.00;0.00;;;20.50;84.50;;;;;;4898305;29;20041;-73
2021/08/31 06:00:11;;;;;;;0.00;0.00;;;20.60;83.90;;;;;;4881270;29;20028;-73
2021/08/31 06:02:40;;;;;;;0.00;0.00;;;20.60;83.70;;;;;;4898064;29;20032;-74
2021/08/31 06:05:06;;;;;;;0.00;0.00;;;20.70;83.40;;;;;;4898406;29;20075;-73
2021/08/31 06:07:35;;;;;;;0.00;0.00;;;20.80;82.90;;;;;;4898097;29;20033;-75
2021/08/31 06:10:03;;;;;;;0.00;0.00;;;20.90;82.70;;;;;;4898122;29;20033;-74
2021/08/31 06:12:29;;;;;;;0.00;0.00;;;20.90;82.30;;;;;;4898457;29;20033;-75
2021/08/31 06:14:55;;;;;;;0.00;0.00;;;20.90;81.90;;;;;;4898573;29;20358;-75
2021/08/31 06:17:22;;;;;;;0.00;0.00;;;21.00;81.90;;;;;;4897859;29;20055;-74
2021/08/31 06:19:48;;;;;;;0.00;0.00;;;21.00;81.70;;;;;;4881180;29;20029;-73
2021/08/31 06:22:14;;;;;;;0.00;0.00;;;21.00;81.60;;;;;;4898253;29;20032;-75
2021/08/31 06:24:40;;;;;;;0.00;0.00;;;21.10;81.50;;;;;;4897997;29;20033;-74
2021/08/31 06:27:06;;;;;;;0.00;0.00;;;21.10;81.20;;;;;;4883649;29;20029;-73
2021/08/31 06:29:32;;;;;;;0.00;0.00;;;21.20;81.10;;;;;;4901161;29;20025;-73
2021/08/31 06:31:58;;;;;;;0.00;0.00;;;21.30;80.90;;;;;;4901633;29;20111;-74
2021/08/31 06:34:24;;;;;;;0.00;0.00;;;21.40;80.30;;;;;;4884721;29;20083;-74
2021/08/31 06:36:50;;;;;;;0.00;0.00;;;21.60;79.70;;;;;;4901661;29;20486;-73
2021/08/31 06:39:16;;;;;;;0.00;0.00;;;21.80;79.10;;;;;;4901377;29;20036;-75
2021/08/31 06:42:09;;;;;;;0.00;0.00;;;22.00;77.90;;;;;;4884463;29;20032;-73
2021/08/31 06:44:39;;;;;;;0.00;0.00;;;22.10;77.50;;;;;;4900654;29;20121;-74
2021/08/31 06:47:05;;;;;;;0.00;0.00;;;22.40;76.80;;;;;;4901159;29;20113;-74
2021/08/31 06:49:34;;;;;;;0.00;0.00;;;22.40;75.80;;;;;;4901472;29;20041;-74
2021/08/31 06:52:00;;;;;;;0.00;0.00;;;22.40;75.20;;;;;;4901162;29;20032;-74
2021/08/31 06:54:26;;;;;;;0.00;0.00;;;22.40;74.70;;;;;;4901544;29;20028;-73
2021/08/31 06:56:52;;;;;;;0.00;0.00;;;22.30;74.30;;;;;;4900921;29;20052;-74
2021/08/31 06:59:18;;;;;;;0.00;0.00;;;22.30;74.10;;;;;;4900973;29;20024;-74
2021/08/31 07:01:43;;;;;;;0.00;0.00;;;22.20;73.80;;;;;;4901126;29;20024;-75
2021/08/31 07:04:11;;;;;;;0.00;0.00;;;22.20;73.80;;;;;;4900498;29;20056;-75
2021/08/31 07:06:37;;;;;;;0.00;0.00;;;22.20;74.10;;;;;;4901021;29;20064;-74
2021/08/31 07:09:05;;;;;;;0.00;0.00;;;22.40;74.20;;;;;;4901527;29;20431;-75
2021/08/31 07:11:31;;;;;;;0.00;0.00;;;22.60;73.10;;;;;;4901449;29;20088;-76
2021/08/31 07:13:57;;;;;;;0.00;0.00;;;22.60;73.00;;;;;;4900770;29;20397;-73
2021/08/31 07:16:22;;;;;;;0.00;0.00;;;22.50;72.50;;;;;;4901009;29;20064;-75
2021/08/31 07:18:48;;;;;;;0.00;0.00;;;22.40;72.20;;;;;;4899572;29;20040;-75
2021/08/31 07:21:14;;;;;;;0.00;0.00;;;22.40;72.20;;;;;;4900669;29;20371;-73
2021/08/31 07:23:40;;;;;;;0.00;0.00;;;22.30;72.20;;;;;;4901351;29;20405;-74
2021/08/31 07:26:05;;;;;;;0.00;0.00;;;22.40;72.00;;;;;;4898521;29;20465;-75
2021/08/31 07:28:31;;;;;;;0.00;0.00;;;22.40;71.80;;;;;;4897633;29;20025;-74
2021/08/31 07:30:57;;;;;;;0.00;0.00;;;22.50;71.40;;;;;;4867927;29;20462;-75
2021/08/31 07:33:23;;;;;;;0.00;0.00;;;22.60;71.10;;;;;;4900269;29;20028;-74
2021/08/31 07:35:49;;;;;;;0.00;0.00;;;22.70;69.90;;;;;;4884028;29;20039;-75
2021/08/31 07:38:14;;;;;;;0.00;0.00;;;22.80;69.20;;;;;;4899494;29;20025;-74
2021/08/31 07:40:40;;;;;;;0.00;0.00;;;22.80;68.60;;;;;;4900019;29;20123;-74
2021/08/31 07:43:06;;;;;;;0.00;0.00;;;23.00;68.10;;;;;;4883202;29;20025;-74
2021/08/31 07:45:32;;;;;;;0.00;0.00;;;23.00;67.30;;;;;;4882879;29;20537;-74
2021/08/31 07:47:58;;;;;;;0.00;0.00;;;23.10;67.00;;;;;;4899988;29;20032;-75
2021/08/31 07:50:24;;;;;;;0.10;0.00;;;23.10;66.50;;;;;;4899880;29;20033;-74
2021/08/31 07:52:50;;;;;;;0.00;0.00;;;23.20;65.80;;;;;;4883120;29;20032;-75
2021/08/31 07:55:16;;;;;;;0.00;0.00;;;23.30;65.60;;;;;;4899751;29;20445;-74
2021/08/31 07:57:42;;;;;;;0.00;0.00;;;23.40;64.90;;;;;;4899909;29;20063;-72
2021/08/31 08:00:10;;;;;;;0.00;0.00;;;23.60;64.80;;;;;;4899772;29;20036;-73
2021/08/31 08:02:36;;;;;;;0.00;0.00;;;23.70;64.30;;;;;;4899318;29;20046;-74
2021/08/31 08:05:04;;;;;;;0.00;0.00;;;24.00;64.20;;;;;;4897911;29;20028;-76
2021/08/31 08:07:30;;;;;;;0.00;0.00;;;24.20;63.60;;;;;;4899605;29;20021;-74
2021/08/31 08:09:56;;;;;;;0.00;0.00;;;24.40;62.50;;;;;;4882673;29;20454;-73
2021/08/31 08:12:23;;;;;;;0.00;0.00;;;24.50;61.40;;;;;;4899538;29;20024;-73
2021/08/31 08:14:49;;;;;;;0.00;0.00;;;24.70;60.80;;;;;;4882548;29;20043;-74
2021/08/31 08:17:20;;;;;;;0.00;0.00;;;24.90;60.00;;;;;;4898739;29;20088;-74
2021/08/31 08:19:46;;;;;;;0.00;0.00;;;25.00;58.80;;;;;;4899469;29;20032;-74
2021/08/31 08:22:12;;;;;;;0.00;0.00;;;25.20;58.60;;;;;;4899440;29;20029;-74
2021/08/31 08:24:39;;;;;;;0.00;0.00;;;25.30;58.00;;;;;;4899156;29;20029;-73
2021/08/31 08:27:06;;;;;;;0.00;0.00;;;25.60;57.60;;;;;;4899330;29;20032;-74
2021/08/31 08:29:32;;;;;;;0.00;0.00;;;25.70;56.70;;;;;;4898806;29;20041;-73
2021/08/31 08:31:58;;;;;;;0.10;0.00;;;26.00;56.20;;;;;;4899734;29;20381;-73
2021/08/31 08:34:23;;;;;;;0.00;0.00;;;26.20;55.40;;;;;;4899930;29;20039;-75
2021/08/31 08:36:50;;;;;;;0.00;0.00;;;26.40;54.60;;;;;;4882253;29;20071;-73
2021/08/31 08:39:15;;;;;;;0.00;0.00;;;26.60;53.90;;;;;;4898957;29;20037;-74
2021/08/31 08:41:42;;;;;;;0.00;0.00;;;26.70;53.80;;;;;;4898617;29;20385;-74
2021/08/31 08:44:08;;;;;;;0.00;0.00;;;27.10;53.50;;;;;;4899011;29;20032;-75
2021/08/31 08:46:35;;;;;;;0.00;0.00;;;27.40;52.60;;;;;;4899261;29;20449;-74
2021/08/31 08:49:01;;;;;;;0.00;0.00;;;27.80;51.90;;;;;;4881888;29;20111;-75
2021/08/31 08:51:26;;;;;;;0.00;0.00;;;28.20;51.50;;;;;;4898984;29;20111;-74
2021/08/31 08:53:53;;;;;;;0.00;0.00;;;28.50;51.00;;;;;;4898507;29;20028;-73
2021/08/31 08:56:20;;;;;;;0.00;0.00;;;28.90;50.50;;;;;;4898911;29;20036;-73
2021/08/31 08:58:46;;;;;;;0.00;0.00;;;29.20;50.20;;;;;;4898613;29;20048;-73
2021/08/31 09:01:12;;;;;;;0.00;0.00;;;29.50;49.80;;;;;;4898609;29;20032;-75
2021/08/31 09:03:41;;;;;;;0.00;0.00;;;29.80;49.40;;;;;;4897979;29;20032;-74
2021/08/31 09:06:12;;;;;;;0.00;0.00;;;30.10;49.00;;;;;;4898815;29;20039;-74
2021/08/31 09:08:42;;;;;;;0.00;0.00;;;30.30;48.50;;;;;;4898511;29;20037;-74
2021/08/31 09:11:19;;;;;;;0.00;0.00;;;30.60;48.20;;;;;;4898403;29;20060;-74
2021/08/31 09:13:45;;;;;;;0.00;0.00;;;30.80;48.00;;;;;;4882102;29;20414;-74
2021/08/31 09:16:29;;;;;;;0.00;0.00;;;31.10;47.90;;;;;;4898235;29;20148;-74
2021/08/31 09:18:55;;;;;;;;;;;31.40;46.80;;;;;;4882292;29;20036;-73
2021/08/31 09:21:24;;;;;;;0.10;0.00;;;31.30;47.30;;;;;;4898249;29;19907;-74
2021/08/31 09:23:52;;;;;;;0.00;0.00;;;31.10;46.70;;;;;;4898738;29;20528;-74
2021/08/31 09:26:18;;;;;;;0.00;0.00;;;31.10;46.90;;;;;;4898407;29;20418;-74
2021/08/31 09:28:45;;;;;;;0.00;0.00;;;31.20;46.00;;;;;;4898805;29;20351;-75
2021/08/31 09:31:17;;;;;;;0.00;0.00;;;31.20;46.40;;;;;;4898483;29;20397;-75
2021/08/31 09:33:49;;;;;;;0.00;0.00;;;31.50;46.60;;;;;;4881852;29;20093;-72
2021/08/31 09:36:16;;;;;;;0.00;0.00;;;32.00;46.50;;;;;;4898639;29;20040;-74
2021/08/31 09:38:52;;;;;;;0.00;0.00;;;32.40;45.50;;;;;;4897808;29;20038;-74
2021/08/31 09:41:31;;;;;;;0.00;0.00;;;32.70;44.20;;;;;;4898120;29;20029;-74
2021/08/31 09:43:59;;;;;;;0.00;0.00;;;32.80;44.20;;;;;;4898157;29;20033;-75
2021/08/31 09:46:45;;;;;;;0.05;0.00;;;33.10;44.10;;;;;;4898393;29;20032;-73
2021/08/31 09:49:23;;;;;;;0.00;0.00;;;33.60;43.20;;;;;;4898423;29;20036;-74
2021/08/31 09:52:03;;;;;;;0.00;0.00;;;33.60;42.80;;;;;;4898323;29;20061;-75
2021/08/31 09:54:30;;;;;;;0.00;0.00;;;33.70;43.00;;;;;;4881155;29;20025;-73
2021/08/31 09:56:56;;;;;;;0.00;0.00;;;33.90;42.10;;;;;;4881370;29;20067;-74
2021/08/31 09:59:23;;;;;;;0.00;0.00;;;34.10;41.60;;;;;;4881387;29;20028;-74
2021/08/31 10:01:52;;;;;;;0.00;0.00;;;34.30;41.10;;;;;;4900374;29;20032;-75
2021/08/31 10:04:19;;;;;;;0.00;0.00;;;34.20;40.70;;;;;;4902251;29;20028;-74
2021/08/31 10:06:45;;;;;;;0.00;0.00;;;34.10;40.70;;;;;;4901630;29;20033;-73
2021/08/31 10:09:11;;;;;;;0.00;0.00;;;34.20;40.70;;;;;;4901602;29;20115;-75
2021/08/31 10:11:38;;;;;;;0.00;0.00;;;34.40;40.70;;;;;;4901600;29;20029;-75
2021/08/31 10:14:04;;;;;;;0.00;0.00;;;34.80;40.60;;;;;;4901687;29;20113;-74
2021/08/31 10:16:32;;;;;;;0.00;0.00;;;35.50;40.30;;;;;;4901883;29;20047;-72
2021/08/31 10:18:58;;;;;;;0.00;0.00;;;35.90;39.60;;;;;;4884530;29;20439;-74
2021/08/31 10:21:24;;;;;;;0.00;0.00;;;36.00;39.30;;;;;;4901271;29;20029;-75
2021/08/31 10:23:50;;;;;;;0.00;0.00;;;36.00;38.30;;;;;;4901228;29;20035;-74
2021/08/31 10:26:38;;;;;;;0.00;0.00;;;36.00;38.10;;;;;;4901334;29;20036;-74
2021/08/31 10:29:16;;;;;;;0.00;0.00;;;36.10;37.90;;;;;;4901419;29;20067;-74
2021/08/31 10:31:45;;;;;;;0.00;0.00;;;36.00;37.90;;;;;;4901684;29;20068;-75
2021/08/31 10:34:29;;;;;;;0.00;0.00;;;36.00;38.00;;;;;;4901175;29;20092;-73
2021/08/31 10:37:08;;;;;;;0.00;0.00;;;35.70;37.80;;;;;;4900144;29;20465;-74
2021/08/31 10:39:44;;;;;;;0.28;0.10;;;35.70;38.50;;;;;;4901371;29;20033;-73
2021/08/31 10:42:11;;;;;;;0.00;0.00;;;36.30;38.20;;;;;;4901552;29;20040;-74
2021/08/31 10:44:41;;;;;;;0.00;0.00;;;36.90;38.10;;;;;;4900945;29;20039;-75
2021/08/31 10:47:07;;;;;;;0.00;0.00;;;36.90;37.50;;;;;;4901350;29;20031;-76
2021/08/31 10:50:08;;;;;;;0.00;0.00;;;36.20;37.70;;;;;;4900882;29;20384;-75
2021/08/31 10:52:35;;;;;;;0.00;0.00;;;35.60;38.50;;;;;;4901363;29;20040;-75
2021/08/31 10:55:01;;;;;;;0.00;0.00;;;35.70;38.40;;;;;;4883877;29;20036;-73
2021/08/31 10:57:36;;;;;;;0.00;0.00;;;36.40;38.00;;;;;;4900367;29;20087;-78
2021/08/31 11:00:14;;;;;;;0.00;0.00;;;37.50;37.40;;;;;;4883921;29;20067;-74
2021/08/31 11:02:46;;;;;;;0.00;0.00;;;37.90;37.10;;;;;;4883823;29;20076;-74
2021/08/31 11:05:21;;;;;;;0.00;0.00;;;37.90;37.40;;;;;;4883756;29;20116;-76
2021/08/31 11:08:00;;;;;;;0.00;0.00;;;38.30;36.90;;;;;;4900378;29;20086;-73
2021/08/31 11:10:30;;;;;;;0.00;0.00;;;39.20;36.60;;;;;;4901058;29;20031;-75
2021/08/31 11:12:57;;;;;;;0.22;0.10;;;39.90;35.60;;;;;;4900591;29;20039;-74
2021/08/31 11:15:24;;;;;;;0.10;0.10;;;40.00;35.10;;;;;;4900542;29;20048;-73
2021/08/31 11:17:51;;;;;;;0.00;0.00;;;40.60;35.00;;;;;;4900520;29;20108;-74
2021/08/31 11:20:33;;;;;;;0.00;0.00;;;40.90;34.30;;;;;;4900169;29;20415;-73
2021/08/31 11:23:09;;;;;;;0.00;0.00;;;41.00;33.80;;;;;;4883572;29;20386;-75
2021/08/31 11:25:35;;;;;;;0.00;0.00;;;41.00;34.10;;;;;;4883594;29;20545;-74
2021/08/31 11:28:07;;;;;;;0.00;0.00;;;41.50;33.90;;;;;;4900364;29;20032;-74
2021/08/31 11:31:05;;;;;;;0.10;0.10;;;42.00;33.60;;;;;;4900246;29;20053;-74
2021/08/31 11:33:35;;;;;;;0.00;0.00;;;42.90;33.30;;;;;;4900514;29;20044;-77
2021/08/31 11:36:04;;;;;;;0.00;0.00;;;43.40;32.80;;;;;;4900359;29;20033;-76
2021/08/31 11:38:34;;;;;;;0.00;0.00;;;42.70;31.90;;;;;;4883230;29;20389;-73
2021/08/31 11:41:15;;;;;;;0.00;0.00;;;42.10;32.00;;;;;;4899996;29;20107;-74
2021/08/31 11:43:41;;;;;;;0.00;0.00;;;41.80;32.50;;;;;;4899896;29;20039;-75
2021/08/31 11:46:07;;;;;;;0.10;0.10;;;41.90;32.30;;;;;;4900748;29;20032;-74
2021/08/31 11:48:34;;;;;;;0.10;0.10;;;42.00;32.40;;;;;;4900047;29;20032;-73
2021/08/31 11:51:01;;;;;;;0.00;0.00;;;42.50;32.50;;;;;;4900046;29;20107;-73
2021/08/31 11:53:28;;;;;;;0.00;0.00;;;43.00;32.20;;;;;;4899974;29;20029;-74
2021/08/31 11:56:02;;;;;;;0.00;0.00;;;42.50;31.60;;;;;;4899922;29;20064;-74
2021/08/31 11:58:29;;;;;;;0.00;0.00;;;41.90;32.00;;;;;;4882878;29;20033;-74
2021/08/31 12:00:56;;;;;;;0.00;0.00;;;41.80;32.30;;;;;;4899748;29;20028;-74
2021/08/31 12:03:27;;;;;;;0.00;0.00;;;41.80;32.40;;;;;;4899730;29;20028;-75
2021/08/31 12:06:07;;;;;;;0.00;0.00;;;42.00;32.60;;;;;;4900083;29;20040;-74
2021/08/31 12:08:40;;;;;;;0.00;0.00;;;41.60;32.40;;;;;;4898992;29;20365;-75
2021/08/31 12:11:07;;;;;;;0.10;0.10;;;40.70;32.70;;;;;;4899991;29;20121;-74
2021/08/31 12:13:34;;;;;;;0.00;0.00;;;39.60;32.90;;;;;;4899728;29;20051;-73
2021/08/31 12:16:01;;;;;;;0.00;0.00;;;39.30;33.50;;;;;;4899230;29;20033;-74
2021/08/31 12:18:29;;;;;;;0.00;0.00;;;39.90;33.90;;;;;;4899294;29;20168;-74
2021/08/31 12:21:13;;;;;;;0.00;0.00;;;40.80;33.30;;;;;;4899637;29;20031;-75
2021/08/31 12:23:39;;;;;;;0.00;0.00;;;41.70;32.80;;;;;;4882686;29;20473;-75
2021/08/31 12:26:05;;;;;;;0.00;0.00;;;42.70;32.50;;;;;;4899573;29;20032;-75
2021/08/31 12:28:31;;;;;;;0.00;0.00;;;42.90;31.70;;;;;;4899254;29;20032;-74
2021/08/31 12:30:57;;;;;;;0.00;0.00;;;41.60;31.60;;;;;;4899154;29;20052;-74
2021/08/31 12:33:26;;;;;;;0.00;0.00;;;40.20;32.60;;;;;;4899275;29;20028;-73
2021/08/31 12:36:04;;;;;;;0.00;0.00;;;40.00;33.20;;;;;;4899933;29;20037;-74
2021/08/31 12:38:47;;;;;;;0.00;0.00;;;40.20;33.00;;;;;;4897984;29;20385;-75
2021/08/31 12:41:21;;;;;;;0.00;0.00;;;39.40;33.00;;;;;;4900004;29;20102;-74
2021/08/31 12:43:53;;;;;;;0.00;0.00;;;38.40;33.60;;;;;;4898469;29;20043;-74
2021/08/31 12:46:27;;;;;;;0.00;0.00;;;37.60;34.40;;;;;;4899000;29;20033;-74
2021/08/31 12:49:08;;;;;;;0.00;0.00;;;38.00;35.20;;;;;;4898849;29;20088;-74
2021/08/31 12:51:38;;;;;;;0.00;0.00;;;39.10;34.70;;;;;;4881884;29;20473;-74